Time;durP1;ratioP1;P1;durP2;ratioP2;P2;SDS_P1;SDS_P2;PMS_P1;PMS_P2;Temp;Humidity;BMP_temperature;BMP_pressure;BME280_temperature;BME280_humidity;BME280_pressure;Samples;Min_cycle;Max_cycle;Signal;HPM_P1;HPM_P2
2023/07/12 00:02:07;;;;;;;0.10;0.10;;;;;;;;;;5150009;27;20043;-50
2023/07/12 00:04:33;;;;;;;0.10;0.10;;;;;;;;;;5137462;27;20523;-50
2023/07/12 00:06:58;;;;;;;0.10;0.10;;;;;;;;;;5129072;27;20050;-50
2023/07/12 00:09:24;;;;;;;0.10;0.10;;;;;;;;;;5131947;28;20592;-50
2023/07/12 00:11:49;;;;;;;0.10;0.10;;;;;;;;;;5151588;27;20054;-50
2023/07/12 00:14:15;;;;;;;0.10;0.10;;;;;;;;;;5152356;27;20127;-48
2023/07/12 00:16:41;;;;;;;0.10;0.10;;;;;;;;;;5131407;28;20043;-50
2023/07/12 00:19:12;;;;;;;0.10;0.10;;;;;;;;;;5132817;28;20071;-49
2023/07/12 00:21:39;;;;;;;0.10;0.10;;;;;;;;;;5149758;27;20082;-50
2023/07/12 00:24:05;;;;;;;0.10;0.10;;;;;;;;;;5153782;27;20054;-49
2023/07/12 00:26:33;;;;;;;0.10;0.10;;;;;;;;;;5148002;27;20381;-50
2023/07/12 00:28:59;;;;;;;;;;;;;;;;;;5132785;27;20043;-50
2023/07/12 00:31:25;;;;;;;0.10;0.10;;;;;;;;;;5147692;27;19972;-50
2023/07/12 00:33:52;;;;;;;0.10;0.10;;;;;;;;;;5152776;27;20055;-50
2023/07/12 00:36:18;;;;;;;0.10;0.10;;;;;;;;;;5138913;27;20051;-49
2023/07/12 00:38:44;;;;;;;0.10;0.10;;;;;;;;;;5131935;27;20399;-50
2023/07/12 00:41:15;;;;;;;0.10;0.10;;;;;;;;;;5144480;27;20494;-49
2023/07/12 00:43:43;;;;;;;0.10;0.10;;;;;;;;;;5131157;28;20055;-50
2023/07/12 00:46:11;;;;;;;0.10;0.10;;;;;;;;;;5131840;27;20043;-49
2023/07/12 00:48:37;;;;;;;;;;;;;;;;;;5132558;27;20134;-50
2023/07/12 00:51:22;;;;;;;0.10;0.10;;;;;;;;;;5143654;27;19925;-50
2023/07/12 00:53:48;;;;;;;0.10;0.10;;;;;;;;;;5137235;27;20090;-50
2023/07/12 00:56:13;;;;;;;0.10;0.10;;;;;;;;;;5152625;27;20077;-49
2023/07/12 00:58:40;;;;;;;0.10;0.10;;;;;;;;;;5152078;27;20051;-50
2023/07/12 01:01:06;;;;;;;0.10;0.10;;;;;;;;;;5141788;27;20067;-50
2023/07/12 01:03:34;;;;;;;0.30;0.30;;;;;;;;;;5152674;27;20281;-50
2023/07/12 01:06:01;;;;;;;0.10;0.10;;;;;;;;;;5152734;27;20046;-50
2023/07/12 01:08:27;;;;;;;0.10;0.10;;;;;;;;;;5151949;27;20167;-50
2023/07/12 01:10:53;;;;;;;0.10;0.10;;;;;;;;;;5151841;27;20505;-49
2023/07/12 01:13:20;;;;;;;0.10;0.10;;;;;;;;;;5152690;27;20050;-49
2023/07/12 01:15:46;;;;;;;0.10;0.10;;;;;;;;;;5152611;27;20047;-50
2023/07/12 01:18:11;;;;;;;0.10;0.10;;;;;;;;;;5145015;27;20051;-50
2023/07/12 01:20:38;;;;;;;0.10;0.10;;;;;;;;;;5140331;27;20213;-50
2023/07/12 01:23:04;;;;;;;0.10;0.10;;;;;;;;;;5152382;27;20055;-50
2023/07/12 01:25:33;;;;;;;0.10;0.10;;;;;;;;;;5152984;27;20046;-49
2023/07/12 01:27:59;;;;;;;0.10;0.10;;;;;;;;;;5145714;27;20454;-48
2023/07/12 01:30:25;;;;;;;0.10;0.10;;;;;;;;;;5137497;27;20502;-49
2023/07/12 01:32:52;;;;;;;0.15;0.15;;;;;;;;;;5152540;27;20055;-49
2023/07/12 01:35:18;;;;;;;0.10;0.10;;;;;;;;;;5152846;27;20043;-50
2023/07/12 01:37:43;;;;;;;0.10;0.10;;;;;;;;;;5141656;27;20399;-50
2023/07/12 01:40:09;;;;;;;0.10;0.10;;;;;;;;;;5135239;27;20491;-50
2023/07/12 01:42:38;;;;;;;0.10;0.10;;;;;;;;;;5152286;27;20047;-50
2023/07/12 01:45:03;;;;;;;0.10;0.10;;;;;;;;;;5133503;27;20062;-50
2023/07/12 01:47:30;;;;;;;0.10;0.10;;;;;;;;;;5131668;27;20395;-48
2023/07/12 01:49:56;;;;;;;0.10;0.10;;;;;;;;;;5133548;27;20554;-49
2023/07/12 01:52:22;;;;;;;0.10;0.10;;;;;;;;;;5152349;27;20051;-50
2023/07/12 01:54:48;;;;;;;0.10;0.10;;;;;;;;;;5152122;27;20482;-48
2023/07/12 01:57:14;;;;;;;0.30;0.30;;;;;;;;;;5151833;27;20063;-50
2023/07/12 01:59:39;;;;;;;0.10;0.10;;;;;;;;;;5151446;27;20043;-50
2023/07/12 02:02:05;;;;;;;0.10;0.10;;;;;;;;;;5137313;27;20189;-50
2023/07/12 02:04:31;;;;;;;0.10;0.10;;;;;;;;;;5131465;27;20539;-50
2023/07/12 02:06:56;;;;;;;0.10;0.10;;;;;;;;;;5131325;27;20138;-50
2023/07/12 02:09:22;;;;;;;0.10;0.10;;;;;;;;;;5130660;27;20130;-50
2023/07/12 02:11:47;;;;;;;0.10;0.10;;;;;;;;;;5148726;27;20494;-50
2023/07/12 02:14:13;;;;;;;0.10;0.10;;;;;;;;;;5152268;27;20039;-51
2023/07/12 02:16:38;;;;;;;0.10;0.10;;;;;;;;;;5151148;27;20039;-50
2023/07/12 02:19:04;;;;;;;0.10;0.10;;;;;;;;;;5151134;27;20047;-50
2023/07/12 02:21:29;;;;;;;0.17;0.17;;;;;;;;;;5130508;27;20115;-50
2023/07/12 02:23:55;;;;;;;0.10;0.10;;;;;;;;;;5130718;28;20489;-50
2023/07/12 02:26:20;;;;;;;0.20;0.20;;;;;;;;;;5130981;28;20043;-50
2023/07/12 02:28:46;;;;;;;0.10;0.10;;;;;;;;;;5108495;27;20040;-49
2023/07/12 02:31:14;;;;;;;0.10;0.10;;;;;;;;;;5118575;27;20058;-50
2023/07/12 02:33:39;;;;;;;0.10;0.10;;;;;;;;;;5130781;28;20476;-49
2023/07/12 02:36:05;;;;;;;0.10;0.10;;;;;;;;;;5130879;28;20050;-50
2023/07/12 02:38:30;;;;;;;0.10;0.10;;;;;;;;;;5130129;28;20051;-50
2023/07/12 02:40:56;;;;;;;0.10;0.10;;;;;;;;;;5140149;27;20045;-50
2023/07/12 02:43:21;;;;;;;0.10;0.10;;;;;;;;;;5150755;27;20057;-50
2023/07/12 02:45:47;;;;;;;0.10;0.10;;;;;;;;;;5141010;27;20046;-50
2023/07/12 02:48:13;;;;;;;0.10;0.10;;;;;;;;;;5130105;27;20145;-50
2023/07/12 02:50:38;;;;;;;0.10;0.10;;;;;;;;;;5138491;27;20099;-50
2023/07/12 02:53:13;;;;;;;0.10;0.10;;;;;;;;;;5150997;27;20047;-50
2023/07/12 02:55:38;;;;;;;0.17;0.17;;;;;;;;;;5151137;27;20054;-50
2023/07/12 02:58:04;;;;;;;0.10;0.10;;;;;;;;;;5150345;27;20043;-50
2023/07/12 03:00:29;;;;;;;0.10;0.10;;;;;;;;;;5150167;27;20058;-50
2023/07/12 03:02:55;;;;;;;0.10;0.10;;;;;;;;;;5144648;27;20124;-50
2023/07/12 03:05:22;;;;;;;0.13;0.13;;;;;;;;;;5129848;27;20054;-50
2023/07/12 03:07:47;;;;;;;0.10;0.10;;;;;;;;;;5129815;27;20051;-50
2023/07/12 03:10:13;;;;;;;0.10;0.10;;;;;;;;;;5134319;27;20050;-50
2023/07/12 03:12:38;;;;;;;0.10;0.10;;;;;;;;;;5150711;27;20047;-50
2023/07/12 03:15:04;;;;;;;0.10;0.10;;;;;;;;;;5149709;27;20054;-50
2023/07/12 03:17:30;;;;;;;0.10;0.10;;;;;;;;;;5150284;27;20493;-50
2023/07/12 03:19:55;;;;;;;0.10;0.10;;;;;;;;;;5150028;27;20088;-50
2023/07/12 03:22:21;;;;;;;0.10;0.10;;;;;;;;;;5136526;27;20051;-50
2023/07/12 03:24:46;;;;;;;0.10;0.10;;;;;;;;;;5129928;28;20096;-50
2023/07/12 03:27:12;;;;;;;0.10;0.10;;;;;;;;;;5129324;27;20050;-51
2023/07/12 03:29:37;;;;;;;0.10;0.10;;;;;;;;;;5147410;27;20479;-48
2023/07/12 03:32:05;;;;;;;0.10;0.10;;;;;;;;;;5142780;27;20051;-50
2023/07/12 03:34:31;;;;;;;0.10;0.10;;;;;;;;;;5129423;28;20043;-50
2023/07/12 03:36:57;;;;;;;0.10;0.10;;;;;;;;;;5129469;28;20054;-50
2023/07/12 03:39:22;;;;;;;0.10;0.10;;;;;;;;;;5128589;28;20214;-49
2023/07/12 03:41:48;;;;;;;0.10;0.10;;;;;;;;;;5133040;27;20080;-50
2023/07/12 03:44:13;;;;;;;0.13;0.13;;;;;;;;;;5129405;28;20380;-50
2023/07/12 03:46:39;;;;;;;0.10;0.10;;;;;;;;;;5128602;28;20468;-50
2023/07/12 03:49:04;;;;;;;0.10;0.10;;;;;;;;;;5128456;28;20357;-50
2023/07/12 03:51:30;;;;;;;0.10;0.10;;;;;;;;;;5144939;27;20050;-50
2023/07/12 03:53:55;;;;;;;0.10;0.10;;;;;;;;;;5150293;27;20501;-49
2023/07/12 03:56:21;;;;;;;0.10;0.10;;;;;;;;;;5149913;27;20114;-50
2023/07/12 03:58:46;;;;;;;0.10;0.10;;;;;;;;;;5149343;27;20057;-50
2023/07/12 04:01:13;;;;;;;0.10;0.10;;;;;;;;;;5149340;27;20046;-48
2023/07/12 04:03:39;;;;;;;0.10;0.10;;;;;;;;;;5150232;27;20049;-50
2023/07/12 04:06:06;;;;;;;0.10;0.10;;;;;;;;;;5131850;27;20047;-48
2023/07/12 04:08:32;;;;;;;0.10;0.10;;;;;;;;;;5129266;28;20066;-49
2023/07/12 04:10:58;;;;;;;0.10;0.10;;;;;;;;;;5140194;27;20149;-50
2023/07/12 04:13:24;;;;;;;0.10;0.10;;;;;;;;;;5150314;27;20070;-50
2023/07/12 04:15:51;;;;;;;0.10;0.10;;;;;;;;;;5149916;27;20050;-50
2023/07/12 04:18:17;;;;;;;0.10;0.10;;;;;;;;;;5149769;27;20094;-49
2023/07/12 04:20:43;;;;;;;0.10;0.10;;;;;;;;;;5149301;27;20444;-50
2023/07/12 04:23:09;;;;;;;0.10;0.10;;;;;;;;;;5145544;27;20054;-50
2023/07/12 04:25:35;;;;;;;0.10;0.10;;;;;;;;;;5129239;27;20047;-50
2023/07/12 04:28:00;;;;;;;0.10;0.10;;;;;;;;;;5115653;27;20048;-50
2023/07/12 04:30:26;;;;;;;0.20;0.20;;;;;;;;;;5122215;27;20111;-50
2023/07/12 04:32:52;;;;;;;0.10;0.10;;;;;;;;;;5149909;27;20530;-50
2023/07/12 04:35:18;;;;;;;0.10;0.10;;;;;;;;;;5130382;27;20063;-49
2023/07/12 04:37:44;;;;;;;0.10;0.10;;;;;;;;;;5129234;28;20471;-50
2023/07/12 04:40:10;;;;;;;0.10;0.10;;;;;;;;;;5132884;27;20482;-50
2023/07/12 04:42:36;;;;;;;0.10;0.10;;;;;;;;;;5143901;27;20077;-49
2023/07/12 04:45:03;;;;;;;0.10;0.10;;;;;;;;;;5128754;27;20051;-50
2023/07/12 04:47:28;;;;;;;0.10;0.10;;;;;;;;;;5128696;28;20104;-50
2023/07/12 04:49:54;;;;;;;0.10;0.10;;;;;;;;;;5130318;27;20043;-50
2023/07/12 04:52:19;;;;;;;0.10;0.10;;;;;;;;;;5149292;27;20042;-50
2023/07/12 04:54:45;;;;;;;0.10;0.10;;;;;;;;;;5151924;27;20043;-50
2023/07/12 04:57:11;;;;;;;0.10;0.10;;;;;;;;;;5152779;27;20045;-50
2023/07/12 04:59:36;;;;;;;0.10;0.10;;;;;;;;;;5152255;27;20050;-49
2023/07/12 05:02:02;;;;;;;0.10;0.10;;;;;;;;;;5152359;27;20046;-50
2023/07/12 05:04:28;;;;;;;0.10;0.10;;;;;;;;;;5152884;27;20043;-50
2023/07/12 05:06:53;;;;;;;0.10;0.10;;;;;;;;;;5142543;27;20446;-52
2023/07/12 05:09:20;;;;;;;0.20;0.20;;;;;;;;;;5131603;28;20549;-50
2023/07/12 05:11:46;;;;;;;0.10;0.10;;;;;;;;;;5149457;27;20493;-50
2023/07/12 05:14:12;;;;;;;0.10;0.10;;;;;;;;;;5152955;27;20046;-50
2023/07/12 05:16:37;;;;;;;0.10;0.10;;;;;;;;;;5152149;27;20100;-50
2023/07/12 05:19:03;;;;;;;0.10;0.10;;;;;;;;;;5152048;27;20426;-49
2023/07/12 05:21:29;;;;;;;0.10;0.10;;;;;;;;;;5151979;27;20042;-50
2023/07/12 05:23:54;;;;;;;0.10;0.10;;;;;;;;;;5152846;27;20392;-50
2023/07/12 05:26:20;;;;;;;0.10;0.10;;;;;;;;;;5134927;27;20057;-50
2023/07/12 05:28:46;;;;;;;0.10;0.10;;;;;;;;;;5150910;27;20051;-49
2023/07/12 05:31:13;;;;;;;0.10;0.10;;;;;;;;;;5141016;27;20039;-50
2023/07/12 05:33:41;;;;;;;0.10;0.10;;;;;;;;;;5131217;28;20042;-49
2023/07/12 05:36:06;;;;;;;0.10;0.10;;;;;;;;;;5130710;28;20039;-50
2023/07/12 05:38:32;;;;;;;0.10;0.10;;;;;;;;;;5131362;28;20053;-50
2023/07/12 05:40:58;;;;;;;0.10;0.10;;;;;;;;;;5141609;27;20054;-49
2023/07/12 05:43:24;;;;;;;0.10;0.10;;;;;;;;;;5152246;27;20072;-50
2023/07/12 05:45:56;;;;;;;0.10;0.10;;;;;;;;;;5132766;27;20047;-48
2023/07/12 05:48:22;;;;;;;0.10;0.10;;;;;;;;;;5131189;28;20051;-50
2023/07/12 05:50:51;;;;;;;0.10;0.10;;;;;;;;;;5135028;27;20545;-50
2023/07/12 05:53:17;;;;;;;0.10;0.10;;;;;;;;;;5131234;27;20342;-50
2023/07/12 05:55:43;;;;;;;0.10;0.10;;;;;;;;;;5131321;27;20103;-49
2023/07/12 05:58:08;;;;;;;0.10;0.10;;;;;;;;;;5131064;27;20188;-50
2023/07/12 06:00:34;;;;;;;0.10;0.10;;;;;;;;;;5138469;27;20051;-50
2023/07/12 06:02:59;;;;;;;0.10;0.10;;;;;;;;;;5151232;27;20331;-49
2023/07/12 06:05:26;;;;;;;0.10;0.10;;;;;;;;;;5151886;27;20082;-50
2023/07/12 06:07:51;;;;;;;0.10;0.10;;;;;;;;;;5149234;27;20090;-50
2023/07/12 06:10:17;;;;;;;0.10;0.10;;;;;;;;;;5135456;27;20054;-49
2023/07/12 06:12:43;;;;;;;0.10;0.10;;;;;;;;;;5152202;27;20054;-49
2023/07/12 06:15:09;;;;;;;0.10;0.10;;;;;;;;;;5151732;27;20058;-49
2023/07/12 06:17:34;;;;;;;0.10;0.10;;;;;;;;;;5152066;27;20559;-49
2023/07/12 06:20:00;;;;;;;0.10;0.10;;;;;;;;;;5151628;27;20077;-50
2023/07/12 06:22:26;;;;;;;0.10;0.10;;;;;;;;;;5151605;27;20043;-50
2023/07/12 06:24:52;;;;;;;0.10;0.10;;;;;;;;;;5152088;27;20089;-49
2023/07/12 06:27:18;;;;;;;0.10;0.10;;;;;;;;;;5138380;27;20051;-50
2023/07/12 06:29:45;;;;;;;0.10;0.10;;;;;;;;;;5130685;27;20051;-50
2023/07/12 06:32:11;;;;;;;0.15;0.15;;;;;;;;;;5151536;27;20050;-50
2023/07/12 06:34:37;;;;;;;0.10;0.10;;;;;;;;;;5151126;27;20043;-51
2023/07/12 06:37:03;;;;;;;0.10;0.10;;;;;;;;;;5147277;27;20381;-50
2023/07/12 06:39:28;;;;;;;0.10;0.10;;;;;;;;;;5129416;27;20063;-50
2023/07/12 06:41:54;;;;;;;0.10;0.10;;;;;;;;;;5150070;27;20511;-50
2023/07/12 06:44:19;;;;;;;0.10;0.10;;;;;;;;;;5151336;27;20051;-50
2023/07/12 06:46:45;;;;;;;0.10;0.10;;;;;;;;;;5140232;27;20051;-50
2023/07/12 06:49:13;;;;;;;0.10;0.10;;;;;;;;;;5130572;27;20093;-50
2023/07/12 06:51:38;;;;;;;0.10;0.10;;;;;;;;;;5147575;27;20047;-49
2023/07/12 06:54:04;;;;;;;0.10;0.10;;;;;;;;;;5132679;27;20055;-51
2023/07/12 06:56:29;;;;;;;0.10;0.10;;;;;;;;;;5130207;28;20062;-48
2023/07/12 06:58:55;;;;;;;0.10;0.10;;;;;;;;;;5130274;28;20096;-50
2023/07/12 07:01:20;;;;;;;0.10;0.10;;;;;;;;;;5144224;27;20051;-51
2023/07/12 07:03:46;;;;;;;0.10;0.10;;;;;;;;;;5151058;27;20477;-49
2023/07/12 07:06:11;;;;;;;0.10;0.10;;;;;;;;;;5151355;27;20051;-50
2023/07/12 07:08:37;;;;;;;0.10;0.10;;;;;;;;;;5150327;27;20419;-50
2023/07/12 07:11:02;;;;;;;0.10;0.10;;;;;;;;;;5137084;27;20402;-50
2023/07/12 07:13:28;;;;;;;0.10;0.10;;;;;;;;;;5130091;28;20122;-50
2023/07/12 07:15:54;;;;;;;0.10;0.10;;;;;;;;;;5128699;27;20081;-50
2023/07/12 07:18:20;;;;;;;0.10;0.10;;;;;;;;;;5129670;28;20051;-50
2023/07/12 07:20:45;;;;;;;0.10;0.10;;;;;;;;;;5139179;27;20039;-49
2023/07/12 07:23:12;;;;;;;0.10;0.10;;;;;;;;;;5150368;27;20074;-50
2023/07/12 07:25:37;;;;;;;0.10;0.10;;;;;;;;;;5139079;27;20097;-50
2023/07/12 07:28:03;;;;;;;0.10;0.10;;;;;;;;;;5141985;27;20054;-48
2023/07/12 07:30:29;;;;;;;0.10;0.10;;;;;;;;;;5135801;27;20191;-50
2023/07/12 07:32:54;;;;;;;0.10;0.10;;;;;;;;;;5150427;27;20046;-50
2023/07/12 07:35:21;;;;;;;0.10;0.10;;;;;;;;;;5150180;27;20471;-49
2023/07/12 07:37:47;;;;;;;0.10;0.10;;;;;;;;;;5149889;27;20058;-50
2023/07/12 07:40:13;;;;;;;0.20;0.15;;;;;;;;;;5138305;27;20043;-50
2023/07/12 07:42:39;;;;;;;0.10;0.10;;;;;;;;;;5149860;27;20081;-49
2023/07/12 07:45:05;;;;;;;0.10;0.10;;;;;;;;;;5149889;27;20039;-50
2023/07/12 07:47:30;;;;;;;0.10;0.10;;;;;;;;;;5148515;27;20403;-49
2023/07/12 07:49:57;;;;;;;0.10;0.10;;;;;;;;;;5131095;27;20059;-50
2023/07/12 07:52:23;;;;;;;0.10;0.10;;;;;;;;;;5150291;27;20133;-49
2023/07/12 07:54:48;;;;;;;0.10;0.10;;;;;;;;;;5140690;27;20085;-50
2023/07/12 07:57:14;;;;;;;0.10;0.10;;;;;;;;;;5129339;27;20047;-50
2023/07/12 07:59:39;;;;;;;0.10;0.10;;;;;;;;;;5129593;27;20131;-49
2023/07/12 08:02:05;;;;;;;0.10;0.10;;;;;;;;;;5150132;27;20284;-50
2023/07/12 08:04:31;;;;;;;0.10;0.10;;;;;;;;;;5150275;27;20053;-50
2023/07/12 08:06:56;;;;;;;0.10;0.10;;;;;;;;;;5150495;27;20074;-50
2023/07/12 08:09:22;;;;;;;0.10;0.10;;;;;;;;;;5137426;27;20047;-49
2023/07/12 08:11:48;;;;;;;0.10;0.10;;;;;;;;;;5130342;27;20078;-50
2023/07/12 08:14:14;;;;;;;0.10;0.10;;;;;;;;;;5129745;28;20415;-51
2023/07/12 08:16:40;;;;;;;0.10;0.10;;;;;;;;;;5128111;28;20047;-49
2023/07/12 08:19:05;;;;;;;0.10;0.10;;;;;;;;;;5129549;28;20059;-50
2023/07/12 08:21:43;;;;;;;0.10;0.10;;;;;;;;;;5146894;27;20038;-49
2023/07/12 08:24:09;;;;;;;0.13;0.13;;;;;;;;;;5150258;27;20290;-49
2023/07/12 08:26:34;;;;;;;0.10;0.10;;;;;;;;;;5113341;27;20677;-50
2023/07/12 08:29:00;;;;;;;0.10;0.10;;;;;;;;;;5124407;28;20058;-49
2023/07/12 08:31:25;;;;;;;0.10;0.10;;;;;;;;;;5132815;27;20054;-50
2023/07/12 08:33:51;;;;;;;0.10;0.10;;;;;;;;;;5133040;28;20047;-50
2023/07/12 08:36:17;;;;;;;0.10;0.10;;;;;;;;;;5132894;28;20533;-49
2023/07/12 08:38:43;;;;;;;0.10;0.10;;;;;;;;;;5132514;28;20051;-48
2023/07/12 08:41:13;;;;;;;0.10;0.10;;;;;;;;;;5136382;27;20043;-49
2023/07/12 08:43:39;;;;;;;0.10;0.10;;;;;;;;;;5132636;28;20059;-50
2023/07/12 08:46:08;;;;;;;0.10;0.10;;;;;;;;;;5132240;28;20051;-49
2023/07/12 08:48:34;;;;;;;0.10;0.10;;;;;;;;;;5132268;28;20043;-49
2023/07/12 08:51:00;;;;;;;0.20;0.20;;;;;;;;;;5132793;27;20047;-50
2023/07/12 08:53:29;;;;;;;0.10;0.10;;;;;;;;;;5132230;28;20059;-50
2023/07/12 08:55:55;;;;;;;0.10;0.10;;;;;;;;;;5132428;28;20160;-50
2023/07/12 08:58:23;;;;;;;0.10;0.10;;;;;;;;;;5131777;28;20081;-49
2023/07/12 09:00:56;;;;;;;0.10;0.10;;;;;;;;;;5142200;27;20046;-49
2023/07/12 09:03:21;;;;;;;0.10;0.10;;;;;;;;;;5153081;27;20047;-50
2023/07/12 09:05:47;;;;;;;0.10;0.10;;;;;;;;;;5153208;27;20095;-50
2023/07/12 09:08:17;;;;;;;0.10;0.10;;;;;;;;;;5153146;27;20133;-49
2023/07/12 09:10:48;;;;;;;0.10;0.10;;;;;;;;;;5152278;27;20049;-50
2023/07/12 09:13:14;;;;;;;0.10;0.10;;;;;;;;;;5153244;27;20047;-50
2023/07/12 09:15:45;;;;;;;0.17;0.17;;;;;;;;;;5152935;27;20262;-50
2023/07/12 09:18:22;;;;;;;0.10;0.10;;;;;;;;;;5151923;27;20043;-49
2023/07/12 09:20:49;;;;;;;0.10;0.10;;;;;;;;;;5152173;27;20562;-50
2023/07/12 09:23:15;;;;;;;0.10;0.10;;;;;;;;;;5152916;27;20077;-50
2023/07/12 09:25:47;;;;;;;0.10;0.10;;;;;;;;;;5136021;27;20046;-51
2023/07/12 09:28:13;;;;;;;0.10;0.10;;;;;;;;;;5152835;27;20050;-50
2023/07/12 09:30:39;;;;;;;0.10;0.10;;;;;;;;;;5139724;27;20220;-50
2023/07/12 09:33:06;;;;;;;0.10;0.10;;;;;;;;;;5131414;28;20274;-50
2023/07/12 09:35:37;;;;;;;0.10;0.10;;;;;;;;;;5132055;28;20475;-49
2023/07/12 09:38:04;;;;;;;0.10;0.10;;;;;;;;;;5131417;28;20059;-50
2023/07/12 09:40:36;;;;;;;0.10;0.10;;;;;;;;;;5138331;27;20111;-49
2023/07/12 09:43:03;;;;;;;0.10;0.10;;;;;;;;;;5143464;27;20051;-50
2023/07/12 09:45:31;;;;;;;0.10;0.10;;;;;;;;;;5131473;27;20055;-48
2023/07/12 09:48:08;;;;;;;0.10;0.10;;;;;;;;;;5131712;27;20043;-49
2023/07/12 09:50:38;;;;;;;0.10;0.10;;;;;;;;;;5139515;27;20042;-50
2023/07/12 09:53:05;;;;;;;0.10;0.10;;;;;;;;;;5132896;27;20438;-49
2023/07/12 09:55:38;;;;;;;0.10;0.10;;;;;;;;;;5131732;27;20051;-50
2023/07/12 09:58:14;;;;;;;0.10;0.10;;;;;;;;;;5130887;27;20204;-50
2023/07/12 10:01:00;;;;;;;0.10;0.10;;;;;;;;;;5139960;27;20066;-50
2023/07/12 10:03:31;;;;;;;0.10;0.10;;;;;;;;;;5136379;27;20539;-50
2023/07/12 10:06:01;;;;;;;0.10;0.10;;;;;;;;;;5152231;27;20047;-50
2023/07/12 10:08:37;;;;;;;0.10;0.10;;;;;;;;;;5151988;27;20043;-50
2023/07/12 10:11:07;;;;;;;0.10;0.10;;;;;;;;;;5150981;27;20070;-50
2023/07/12 10:13:51;;;;;;;0.10;0.10;;;;;;;;;;5151945;27;20047;-50
2023/07/12 10:16:20;;;;;;;0.10;0.10;;;;;;;;;;5151717;27;20074;-49
2023/07/12 10:18:48;;;;;;;0.10;0.10;;;;;;;;;;5151680;27;20066;-49
2023/07/12 10:21:19;;;;;;;0.10;0.10;;;;;;;;;;5151464;27;20344;-50
2023/07/12 10:23:49;;;;;;;0.10;0.10;;;;;;;;;;5145950;27;20552;-50
2023/07/12 10:26:15;;;;;;;0.10;0.10;;;;;;;;;;5140969;27;20042;-50
2023/07/12 10:28:45;;;;;;;0.20;0.20;;;;;;;;;;5151640;27;20107;-54
2023/07/12 10:31:35;;;;;;;0.10;0.10;;;;;;;;;;5147949;27;20070;-50
2023/07/12 10:34:16;;;;;;;0.10;0.10;;;;;;;;;;5129091;28;20051;-50
2023/07/12 10:36:43;;;;;;;0.10;0.10;;;;;;;;;;5130484;28;20460;-50
2023/07/12 10:39:09;;;;;;;0.10;0.10;;;;;;;;;;5130641;28;20071;-50
2023/07/12 10:41:38;;;;;;;0.10;0.10;;;;;;;;;;5146405;27;20408;-49
2023/07/12 10:44:05;;;;;;;0.10;0.10;;;;;;;;;;5147047;27;20055;-48
2023/07/12 10:46:33;;;;;;;0.10;0.10;;;;;;;;;;5129886;27;20054;-51
2023/07/12 10:49:03;;;;;;;0.10;0.10;;;;;;;;;;5129998;28;20288;-50
2023/07/12 10:51:34;;;;;;;0.10;0.10;;;;;;;;;;5145109;27;20043;-50
2023/07/12 10:53:59;;;;;;;0.10;0.10;;;;;;;;;;5139888;27;20617;-50
2023/07/12 10:56:45;;;;;;;0.10;0.10;;;;;;;;;;5130733;27;20104;-48
2023/07/12 10:59:30;;;;;;;0.10;0.10;;;;;;;;;;5128507;28;20043;-50
2023/07/12 11:02:09;;;;;;;0.10;0.10;;;;;;;;;;5114637;28;20078;-49
2023/07/12 11:04:44;;;;;;;0.10;0.10;;;;;;;;;;5130401;28;20047;-50
2023/07/12 11:09:47;;;;;;;0.10;0.10;;;;;;;;;;5186803;27;20977;-50
2023/07/12 11:15:06;;;;;;;0.10;0.10;;;;;;;;;;5189405;27;20502;-49
2023/07/12 11:17:31;;;;;;;;;;;;;;;;;;5168243;27;20046;-49
2023/07/12 11:20:03;;;;;;;0.10;0.10;;;;;;;;;;5167326;27;20273;-50
2023/07/12 11:22:48;;;;;;;0.10;0.10;;;;;;;;;;5167258;27;20043;-49
2023/07/12 11:25:24;;;;;;;0.10;0.10;;;;;;;;;;5162600;27;20094;-50
2023/07/12 11:30:29;;;;;;;0.10;0.10;;;;;;;;;;5183595;27;20140;-50
2023/07/12 11:33:15;;;;;;;0.10;0.10;;;;;;;;;;5167786;27;20042;-50
2023/07/12 11:35:44;;;;;;;0.10;0.10;;;;;;;;;;5152488;27;20046;-49
2023/07/12 11:38:13;;;;;;;0.10;0.10;;;;;;;;;;5167592;27;20054;-49
2023/07/12 11:40:38;;;;;;;;;;;;;;;;;;5167471;27;20053;-50
2023/07/12 11:43:24;;;;;;;0.10;0.10;;;;;;;;;;5167555;27;20014;-49
2023/07/12 11:45:51;;;;;;;0.10;0.10;;;;;;;;;;5151646;27;20082;-49
2023/07/12 11:48:17;;;;;;;0.10;0.10;;;;;;;;;;5167235;27;20403;-48
2023/07/12 11:50:44;;;;;;;0.10;0.10;;;;;;;;;;5167443;27;20505;-48
2023/07/12 11:53:10;;;;;;;0.10;0.10;;;;;;;;;;5167560;27;20058;-46
2023/07/12 11:55:36;;;;;;;0.10;0.10;;;;;;;;;;5167459;27;20119;-50
2023/07/12 11:58:12;;;;;;;0.10;0.10;;;;;;;;;;5167246;27;20501;-49
2023/07/12 12:00:38;;;;;;;0.10;0.10;;;;;;;;;;5162548;27;20467;-49
2023/07/12 12:03:04;;;;;;;0.10;0.10;;;;;;;;;;5145614;27;20476;-45
2023/07/12 12:05:33;;;;;;;0.10;0.10;;;;;;;;;;5146976;27;20582;-48
2023/07/12 12:08:00;;;;;;;0.10;0.10;;;;;;;;;;5146642;27;20475;-50
2023/07/12 12:10:28;;;;;;;0.10;0.10;;;;;;;;;;5145725;27;20430;-50
2023/07/12 12:12:54;;;;;;;0.10;0.10;;;;;;;;;;5146316;27;20047;-49
2023/07/12 12:15:22;;;;;;;0.10;0.10;;;;;;;;;;5128111;27;20073;-50
2023/07/12 12:17:48;;;;;;;0.10;0.10;;;;;;;;;;5146345;27;20074;-49
2023/07/12 12:20:16;;;;;;;0.10;0.10;;;;;;;;;;5145704;27;20133;-49
2023/07/12 12:22:43;;;;;;;0.10;0.10;;;;;;;;;;5145948;27;20039;-50
2023/07/12 12:25:26;;;;;;;0.10;0.10;;;;;;;;;;5146282;27;20088;-49
2023/07/12 12:27:51;;;;;;;0.10;0.10;;;;;;;;;;5146493;27;20047;-50
2023/07/12 12:30:19;;;;;;;0.10;0.10;;;;;;;;;;5145721;27;20159;-50
2023/07/12 12:33:04;;;;;;;0.10;0.10;;;;;;;;;;5146221;27;20495;-49
2023/07/12 12:35:31;;;;;;;0.10;0.10;;;;;;;;;;5132373;27;20055;-50
2023/07/12 12:37:57;;;;;;;0.10;0.10;;;;;;;;;;5144809;27;20263;-50
2023/07/12 12:40:23;;;;;;;0.10;0.10;;;;;;;;;;5139361;27;20043;-48
2023/07/12 12:42:56;;;;;;;0.10;0.10;;;;;;;;;;5132119;28;20401;-50
2023/07/12 12:45:21;;;;;;;0.10;0.10;;;;;;;;;;5132134;28;20070;-50
2023/07/12 12:47:47;;;;;;;0.10;0.10;;;;;;;;;;5132072;28;20051;-50
2023/07/12 12:50:20;;;;;;;0.10;0.10;;;;;;;;;;5130884;28;20075;-50
2023/07/12 12:52:49;;;;;;;0.10;0.10;;;;;;;;;;5132228;28;20047;-50
2023/07/12 12:55:17;;;;;;;0.10;0.10;;;;;;;;;;5132565;28;20313;-49
2023/07/12 12:58:03;;;;;;;0.10;0.10;;;;;;;;;;5116643;28;20051;-49
2023/07/12 13:00:31;;;;;;;0.10;0.10;;;;;;;;;;5131441;27;20298;-49
2023/07/12 13:03:00;;;;;;;0.10;0.10;;;;;;;;;;5131809;28;20047;-49
2023/07/12 13:05:28;;;;;;;0.10;0.10;;;;;;;;;;5131728;28;20047;-48
2023/07/12 13:08:01;;;;;;;0.10;0.10;;;;;;;;;;5132022;28;20054;-50
2023/07/12 13:10:29;;;;;;;0.13;0.13;;;;;;;;;;5130515;28;20047;-50
2023/07/12 13:12:58;;;;;;;0.10;0.10;;;;;;;;;;5131874;28;20047;-49
2023/07/12 13:15:26;;;;;;;0.10;0.10;;;;;;;;;;5131686;28;20104;-50
2023/07/12 13:17:55;;;;;;;0.10;0.10;;;;;;;;;;5131593;28;20047;-48
2023/07/12 13:20:40;;;;;;;0.10;0.10;;;;;;;;;;5109315;28;20439;-50
2023/07/12 13:23:10;;;;;;;0.10;0.10;;;;;;;;;;5130496;27;20466;-50
2023/07/12 13:25:38;;;;;;;0.10;0.10;;;;;;;;;;5152060;27;20272;-50
2023/07/12 13:28:04;;;;;;;0.10;0.10;;;;;;;;;;5151957;27;20430;-50
2023/07/12 13:30:30;;;;;;;0.10;0.10;;;;;;;;;;5143946;27;20101;-49
2023/07/12 13:32:56;;;;;;;0.10;0.10;;;;;;;;;;5131299;28;20050;-50
2023/07/12 13:35:23;;;;;;;0.10;0.10;;;;;;;;;;5131598;28;20050;-48
2023/07/12 13:37:51;;;;;;;0.10;0.10;;;;;;;;;;5130641;28;20055;-50
2023/07/12 13:40:37;;;;;;;0.10;0.10;;;;;;;;;;5124126;28;20047;-50
2023/07/12 13:43:10;;;;;;;0.10;0.10;;;;;;;;;;5130289;28;20047;-50
2023/07/12 13:45:56;;;;;;;0.10;0.10;;;;;;;;;;5115005;28;20108;-49
2023/07/12 13:48:25;;;;;;;0.10;0.10;;;;;;;;;;5130623;28;20296;-50
2023/07/12 13:50:51;;;;;;;0.10;0.10;;;;;;;;;;5129613;28;20051;-50
2023/07/12 13:53:16;;;;;;;0.10;0.10;;;;;;;;;;5129431;27;20456;-50
2023/07/12 13:55:42;;;;;;;0.10;0.10;;;;;;;;;;5130833;28;20544;-50
2023/07/12 13:58:12;;;;;;;0.10;0.10;;;;;;;;;;5130618;28;20044;-49
2023/07/12 14:00:40;;;;;;;;;;;;;;;;;;5129980;27;20051;-49
2023/07/12 14:03:09;;;;;;;0.10;0.10;;;;;;;;;;5130331;28;19920;-50
2023/07/12 14:05:46;;;;;;;0.10;0.10;;;;;;;;;;5129808;28;20066;-50
2023/07/12 14:08:22;;;;;;;0.10;0.10;;;;;;;;;;5130340;28;20229;-49
2023/07/12 14:11:04;;;;;;;0.10;0.10;;;;;;;;;;5129612;28;20055;-49
2023/07/12 14:13:29;;;;;;;0.10;0.10;;;;;;;;;;5130311;28;20074;-50
2023/07/12 14:15:55;;;;;;;0.10;0.10;;;;;;;;;;5129767;28;20404;-50
2023/07/12 14:18:20;;;;;;;0.10;0.10;;;;;;;;;;5130072;28;20043;-49
2023/07/12 14:20:48;;;;;;;0.10;0.10;;;;;;;;;;5129748;28;20134;-50
2023/07/12 14:23:16;;;;;;;0.10;0.10;;;;;;;;;;5121668;27;20278;-50
2023/07/12 14:25:41;;;;;;;0.10;0.10;;;;;;;;;;5130416;28;20047;-50
2023/07/12 14:28:08;;;;;;;0.10;0.10;;;;;;;;;;5129798;28;20057;-50
2023/07/12 14:30:36;;;;;;;0.10;0.10;;;;;;;;;;5129545;28;20426;-50
2023/07/12 14:33:20;;;;;;;0.10;0.10;;;;;;;;;;5129934;28;20054;-50
2023/07/12 14:35:47;;;;;;;0.10;0.10;;;;;;;;;;5129842;28;20050;-49
2023/07/12 14:38:13;;;;;;;0.10;0.10;;;;;;;;;;5129490;28;20147;-50
2023/07/12 14:40:38;;;;;;;0.10;0.10;;;;;;;;;;5128041;28;20054;-49
2023/07/12 14:43:09;;;;;;;0.10;0.10;;;;;;;;;;5129456;28;20445;-49
2023/07/12 14:45:34;;;;;;;0.10;0.10;;;;;;;;;;5129258;27;20536;-49
2023/07/12 14:48:03;;;;;;;0.10;0.10;;;;;;;;;;5129214;28;20058;-49
2023/07/12 14:50:28;;;;;;;;;;;;;;;;;;5129715;28;20480;-50
2023/07/12 14:52:54;;;;;;;0.10;0.10;;;;;;;;;;5129091;28;19919;-49
2023/07/12 14:55:19;;;;;;;0.10;0.10;;;;;;;;;;5130144;28;20053;-50
2023/07/12 14:57:45;;;;;;;0.10;0.10;;;;;;;;;;5129912;28;20122;-50